createdAt,value
2023-05-19T00:02:36.162Z,75.85
2023-05-19T00:06:39.313Z,76.02
2023-05-19T00:10:42.723Z,76.12
2023-05-19T00:14:47.326Z,76.22
2023-05-19T00:18:50.148Z,76.32
2023-05-19T00:22:52.846Z,76.26
2023-05-19T00:26:55.632Z,76.57
2023-05-19T00:30:59.672Z,77.20
2023-05-19T00:35:02.324Z,77.40
2023-05-19T00:39:05.110Z,77.68
2023-05-19T00:43:08.457Z,78.50
2023-05-19T00:47:12.499Z,78.93
2023-05-19T00:51:17.155Z,79.41
2023-05-19T00:55:21.156Z,79.62
2023-05-19T00:59:23.815Z,79.63
2023-05-19T01:03:30.922Z,79.90
2023-05-19T01:07:34.280Z,80.03
2023-05-19T01:11:36.905Z,80.21
2023-05-19T01:15:52.428Z,80.40
2023-05-19T01:20:06.669Z,80.67
2023-05-19T01:24:24.170Z,80.93
2023-05-19T01:28:54.128Z,81.16
2023-05-19T01:33:01.588Z,81.20
2023-05-19T01:37:06.416Z,81.73
2023-05-19T01:41:10.650Z,82.01
2023-05-19T01:45:13.966Z,81.63
2023-05-19T01:49:17.980Z,81.42
2023-05-19T01:53:20.568Z,81.37
2023-05-19T01:57:32.323Z,81.73
2023-05-19T02:01:39.982Z,80.88
2023-05-19T02:05:53.610Z,79.69
2023-05-19T02:10:05.756Z,78.14
2023-05-19T02:14:14.696Z,77.60
2023-05-19T02:18:20.377Z,77.03
2023-05-19T02:22:24.367Z,76.59
2023-05-19T02:26:27.051Z,76.37
2023-05-19T02:30:31.762Z,76.36
2023-05-19T02:34:34.732Z,77.38
2023-05-19T02:38:38.699Z,77.71
2023-05-19T02:42:41.303Z,77.78
2023-05-19T02:46:44.111Z,77.76
2023-05-19T02:50:46.795Z,77.07
2023-05-19T02:54:51.293Z,77.44
2023-05-19T02:58:53.898Z,78.15
2023-05-19T03:02:56.556Z,78.26
2023-05-19T03:06:59.232Z,78.38
2023-05-19T03:11:03.283Z,78.42
2023-05-19T03:15:06.949Z,78.15
2023-05-19T03:19:09.933Z,77.88
2023-05-19T03:23:12.708Z,78.08
2023-05-19T03:27:16.825Z,78.12
2023-05-19T03:31:19.784Z,78.38
2023-05-19T03:35:22.494Z,77.56
2023-05-19T03:39:25.128Z,77.81
2023-05-19T03:43:29.169Z,77.42
2023-05-19T03:47:32.566Z,77.47
2023-05-19T03:51:36.600Z,77.34
2023-05-19T03:55:40.142Z,77.06
2023-05-19T03:59:44.160Z,77.25
2023-05-19T04:03:46.921Z,76.71
2023-05-19T04:07:49.591Z,76.88
2023-05-19T04:11:52.195Z,77.25
2023-05-19T04:15:56.361Z,77.01
2023-05-19T04:19:59.047Z,76.29
2023-05-19T04:24:01.767Z,76.85
2023-05-19T04:28:04.562Z,76.97
2023-05-19T04:32:09.208Z,76.46
2023-05-19T04:36:13.774Z,76.80
2023-05-19T04:40:17.445Z,76.88
2023-05-19T04:44:20.514Z,77.21
2023-05-19T04:48:24.677Z,77.08
2023-05-19T04:52:27.874Z,76.69
2023-05-19T04:56:30.637Z,75.90
2023-05-19T05:00:35.876Z,76.14
2023-05-19T05:04:42.617Z,75.52
2023-05-19T05:08:45.354Z,75.65
2023-05-19T05:12:48.461Z,74.80
2023-05-19T05:16:51.914Z,74.59
2023-05-19T05:20:56.593Z,74.52
2023-05-19T05:24:59.782Z,73.99
2023-05-19T05:29:02.622Z,73.89
2023-05-19T05:33:05.379Z,74.33
2023-05-19T05:37:09.483Z,74.83
2023-05-19T05:41:12.182Z,72.61
2023-05-19T05:45:14.887Z,72.32
2023-05-19T05:49:18.115Z,72.59
2023-05-19T05:53:23.144Z,72.31
2023-05-19T05:57:25.804Z,71.47
2023-05-19T06:01:31.866Z,72.02
2023-05-19T06:05:35.822Z,71.00
2023-05-19T06:09:39.830Z,70.07
2023-05-19T06:13:42.516Z,71.01
2023-05-19T06:17:45.239Z,71.05
2023-05-19T06:21:47.950Z,69.28
2023-05-19T06:25:51.981Z,70.19
2023-05-19T06:29:54.851Z,70.09
2023-05-19T06:33:57.486Z,68.99
2023-05-19T06:38:00.175Z,69.17
2023-05-19T06:42:04.440Z,67.93
2023-05-19T06:46:07.100Z,66.12
2023-05-19T06:50:11.165Z,65.62
2023-05-19T06:54:16.113Z,65.30
2023-05-19T06:58:20.396Z,64.58
2023-05-19T07:02:23.172Z,60.68
2023-05-19T07:06:26.085Z,61.80
2023-05-19T07:10:29.018Z,62.69
2023-05-19T07:14:33.073Z,61.68
2023-05-19T07:18:35.855Z,61.56
2023-05-19T07:22:39.670Z,61.42
2023-05-19T07:26:42.668Z,62.43
2023-05-19T07:30:46.647Z,60.70
2023-05-19T07:34:49.330Z,62.36
2023-05-19T07:38:52.189Z,61.64
2023-05-19T07:42:54.832Z,60.19
2023-05-19T07:46:59.109Z,60.90
2023-05-19T07:51:01.717Z,60.37
2023-05-19T07:55:05.138Z,60.85
2023-05-19T07:59:08.261Z,61.62
2023-05-19T08:03:13.357Z,62.20
2023-05-19T08:07:16.257Z,60.62
2023-05-19T08:11:18.964Z,58.95
2023-05-19T08:15:21.873Z,58.82
2023-05-19T08:19:26.976Z,58.31
2023-05-19T08:23:30.135Z,59.37
2023-05-19T08:27:32.832Z,59.80
2023-05-19T08:31:35.532Z,57.36
2023-05-19T08:35:39.620Z,57.57
2023-05-19T08:39:43.113Z,56.57
2023-05-19T08:43:45.830Z,56.73
2023-05-19T08:47:48.544Z,57.29
2023-05-19T08:52:01.418Z,58.04
2023-05-19T08:56:11.257Z,55.71
2023-05-19T09:00:15.885Z,56.92
2023-05-19T09:04:18.713Z,54.39
2023-05-19T09:08:22.781Z,56.19
2023-05-19T09:12:25.506Z,53.96
2023-05-19T09:16:30.249Z,56.46
2023-05-19T09:20:33.183Z,55.50
2023-05-19T09:24:39.093Z,55.75
2023-05-19T09:28:41.952Z,55.93
2023-05-19T09:32:44.821Z,55.08
2023-05-19T09:36:49.483Z,57.22
2023-05-19T09:40:54.103Z,55.64
2023-05-19T09:45:01.833Z,51.19
2023-05-19T09:49:10.311Z,52.17
2023-05-19T09:53:14.958Z,51.88
2023-05-19T09:57:18.949Z,50.98
2023-05-19T10:01:22.243Z,52.23
2023-05-19T10:05:25.585Z,49.60
2023-05-19T10:09:30.514Z,50.38
2023-05-19T10:13:39.087Z,50.55
2023-05-19T10:17:43.446Z,53.77
2023-05-19T10:21:47.078Z,51.69
2023-05-19T10:25:52.150Z,51.13
2023-05-19T10:30:00.178Z,49.11
2023-05-19T10:34:31.327Z,51.65
2023-05-19T10:38:40.219Z,48.02
2023-05-19T10:42:55.062Z,49.21
2023-05-19T10:46:59.307Z,49.76
2023-05-19T10:51:02.054Z,53.69
2023-05-19T10:55:05.305Z,52.85
2023-05-19T10:59:08.822Z,50.37
2023-05-19T11:03:15.994Z,51.40
2023-05-19T11:07:20.536Z,50.05
2023-05-19T11:11:23.616Z,49.98
2023-05-19T11:15:28.206Z,49.58
2023-05-19T11:19:33.759Z,46.78
2023-05-19T11:23:41.167Z,47.40
2023-05-19T11:27:47.416Z,49.26
2023-05-19T11:31:50.588Z,50.50
2023-05-19T11:35:57.930Z,51.11
2023-05-19T11:40:03.121Z,48.19
2023-05-19T11:44:11.041Z,49.18
2023-05-19T11:48:14.025Z,52.09
2023-05-19T11:52:18.090Z,51.93
2023-05-19T11:56:21.481Z,50.06
2023-05-19T12:00:25.044Z,50.54
2023-05-19T12:04:27.659Z,51.74
2023-05-19T12:08:31.974Z,51.00
2023-05-19T12:12:35.984Z,52.25
2023-05-19T12:16:38.780Z,49.37
2023-05-19T12:20:42.030Z,45.27
2023-05-19T12:24:48.227Z,47.53
2023-05-19T12:28:52.738Z,47.96
2023-05-19T12:32:56.901Z,44.49
2023-05-19T12:37:00.589Z,46.63
2023-05-19T12:41:05.437Z,46.25
2023-05-19T12:45:09.434Z,46.50
2023-05-19T12:49:12.550Z,46.40
2023-05-19T12:53:16.182Z,44.55
2023-05-19T12:57:22.011Z,46.23
2023-05-19T13:01:25.385Z,48.13
2023-05-19T13:05:29.056Z,47.08
2023-05-19T13:09:35.044Z,48.71
2023-05-19T13:13:39.002Z,49.27
2023-05-19T13:17:42.055Z,51.51
2023-05-19T13:21:47.365Z,51.02
2023-05-19T13:25:50.684Z,49.36
2023-05-19T13:29:54.694Z,50.34
2023-05-19T13:33:57.413Z,48.40
2023-05-19T13:38:00.067Z,48.13
2023-05-19T13:42:03.007Z,47.69
2023-05-19T13:46:07.161Z,49.33
2023-05-19T13:50:11.020Z,47.64
2023-05-19T13:54:13.658Z,47.91
2023-05-19T13:58:17.073Z,45.73
2023-05-19T14:02:22.045Z,47.20
2023-05-19T14:06:24.883Z,47.23
2023-05-19T14:10:27.863Z,47.44
2023-05-19T14:14:30.810Z,47.34
2023-05-19T14:18:35.947Z,46.57
2023-05-19T14:22:38.606Z,49.80
2023-05-19T14:26:41.743Z,49.74
2023-05-19T14:30:44.981Z,51.43
2023-05-19T14:34:52.726Z,50.35
2023-05-19T14:38:55.395Z,50.25
2023-05-19T14:42:58.038Z,47.46
2023-05-19T14:47:02.023Z,47.14
2023-05-19T14:51:06.237Z,49.96
2023-05-19T14:55:09.651Z,50.05
2023-05-19T14:59:12.296Z,50.83
2023-05-19T15:03:14.976Z,51.75
2023-05-19T15:07:19.343Z,52.52
2023-05-19T15:11:22.473Z,51.25
2023-05-19T15:15:25.097Z,51.16
2023-05-19T15:19:27.978Z,51.45
2023-05-19T15:23:32.176Z,52.42
2023-05-19T15:27:35.654Z,53.18
2023-05-19T15:31:38.624Z,52.74
2023-05-19T15:35:41.373Z,53.39
2023-05-19T15:39:45.530Z,52.83
2023-05-19T15:43:48.187Z,52.23
2023-05-19T15:47:50.850Z,50.10
2023-05-19T15:51:53.506Z,51.38
2023-05-19T15:55:57.817Z,50.62
2023-05-19T16:00:00.576Z,51.64
2023-05-19T16:04:04.001Z,51.51
2023-05-19T16:08:08.705Z,52.66
2023-05-19T16:12:12.893Z,50.40
2023-05-19T16:16:15.825Z,50.87
2023-05-19T16:20:18.703Z,51.46
2023-05-19T16:24:21.328Z,51.22
2023-05-19T16:28:25.457Z,51.41
2023-05-19T16:32:28.230Z,51.77
2023-05-19T16:36:31.885Z,51.05
2023-05-19T16:40:35.057Z,50.41
2023-05-19T16:44:39.369Z,51.43
2023-05-19T16:48:42.109Z,51.44
2023-05-19T16:52:44.923Z,51.41
2023-05-19T16:56:47.554Z,52.85
2023-05-19T17:00:53.663Z,53.60
2023-05-19T17:04:56.396Z,53.91
2023-05-19T17:08:59.059Z,54.70
2023-05-19T17:13:01.864Z,55.37
2023-05-19T17:17:06.166Z,55.21
2023-05-19T17:21:08.866Z,55.90
2023-05-19T17:25:11.757Z,56.72
2023-05-19T17:29:14.416Z,56.74
2023-05-19T17:33:18.486Z,57.77
2023-05-19T17:37:23.484Z,57.83
2023-05-19T17:41:26.342Z,57.13
2023-05-19T17:45:29.025Z,58.37
2023-05-19T17:49:33.007Z,58.58
2023-05-19T17:53:36.697Z,58.78
2023-05-19T17:57:41.889Z,58.78
2023-05-19T18:01:45.327Z,59.54
2023-05-19T18:05:50.407Z,59.70
2023-05-19T18:09:56.200Z,60.08
2023-05-19T18:13:58.818Z,61.16
2023-05-19T18:18:03.011Z,61.57
2023-05-19T18:22:07.360Z,62.67
2023-05-19T18:26:11.362Z,62.61
2023-05-19T18:30:14.511Z,62.71
2023-05-19T18:34:17.148Z,62.96
2023-05-19T18:38:23.620Z,63.44
2023-05-19T18:42:26.273Z,63.87
2023-05-19T18:46:29.869Z,64.59
2023-05-19T18:50:32.763Z,64.75
2023-05-19T18:54:37.585Z,65.25
2023-05-19T18:58:40.179Z,65.18
2023-05-19T19:02:43.060Z,64.93
2023-05-19T19:06:45.823Z,65.74
2023-05-19T19:10:51.620Z,65.97
2023-05-19T19:14:54.811Z,66.44
2023-05-19T19:18:57.483Z,67.03
2023-05-19T19:23:01.944Z,67.12
2023-05-19T19:27:06.530Z,67.78
2023-05-19T19:31:09.230Z,67.79
2023-05-19T19:35:12.263Z,68.00
2023-05-19T19:39:15.052Z,68.03
2023-05-19T19:43:19.080Z,68.45
2023-05-19T19:47:21.861Z,68.72
2023-05-19T19:51:24.841Z,69.09
2023-05-19T19:55:28.799Z,69.25
2023-05-19T19:59:32.814Z,69.33
2023-05-19T20:03:36.456Z,69.60
2023-05-19T20:07:39.224Z,69.89
2023-05-19T20:11:41.900Z,70.11
2023-05-19T20:15:47.136Z,70.74
2023-05-19T20:19:49.864Z,70.76
2023-05-19T20:23:52.670Z,70.67
2023-05-19T20:27:55.426Z,70.97
2023-05-19T20:31:59.467Z,71.25
2023-05-19T20:36:02.078Z,71.06
2023-05-19T20:40:05.682Z,70.99
2023-05-19T20:44:10.248Z,71.30
2023-05-19T20:48:15.683Z,71.14
2023-05-19T20:52:19.390Z,71.43
2023-05-19T20:56:23.078Z,71.63
2023-05-19T21:00:25.866Z,71.79
2023-05-19T21:04:30.854Z,72.00
2023-05-19T21:08:33.531Z,72.10
2023-05-19T21:12:36.155Z,72.56
2023-05-19T21:16:39.284Z,72.52
2023-05-19T21:20:43.310Z,72.82
2023-05-19T21:24:46.017Z,73.20
2023-05-19T21:28:48.709Z,73.34
2023-05-19T21:32:51.790Z,73.81
2023-05-19T21:36:55.836Z,74.02
2023-05-19T21:40:58.658Z,74.33
2023-05-19T21:45:01.944Z,74.74
2023-05-19T21:49:06.378Z,74.92
2023-05-19T21:53:11.621Z,75.27
2023-05-19T21:57:14.414Z,75.42
2023-05-19T22:01:17.099Z,75.54
2023-05-19T22:05:19.781Z,75.69
2023-05-19T22:09:23.949Z,75.85
2023-05-19T22:13:26.684Z,75.77
2023-05-19T22:17:29.944Z,75.73
2023-05-19T22:21:33.205Z,75.83
2023-05-19T22:25:37.243Z,75.78
2023-05-19T22:29:39.922Z,75.71
2023-05-19T22:33:42.744Z,75.79
2023-05-19T22:37:45.420Z,75.96
2023-05-19T22:41:49.444Z,76.24
2023-05-19T22:45:52.147Z,76.52
2023-05-19T22:49:55.676Z,76.71
2023-05-19T22:53:59.886Z,76.92
2023-05-19T22:58:03.979Z,77.22
2023-05-19T23:02:06.913Z,77.46
2023-05-19T23:06:09.781Z,77.86
2023-05-19T23:10:12.767Z,78.34
2023-05-19T23:14:18.475Z,78.68
2023-05-19T23:18:21.316Z,79.00
2023-05-19T23:22:24.139Z,78.84
2023-05-19T23:26:27.511Z,79.14
2023-05-19T23:30:33.139Z,79.09
2023-05-19T23:34:36.140Z,79.25
2023-05-19T23:38:38.844Z,79.53
2023-05-19T23:42:41.596Z,79.75
2023-05-19T23:46:45.704Z,79.64
2023-05-19T23:50:48.832Z,79.87
2023-05-19T23:54:52.159Z,80.14
2023-05-19T23:58:55.009Z,80.04
